Lucia, California
Current Conditions -  °F | °C
As of 1:54 PM on Tuesday 21 Oct 2014 (Local Time) from KMRY Reporting Station
Clear Clear  
Wind Chill: 66°   Ceiling: Unl
Heat Index: 66°   Visibility: 10mi
Dew Point: 49°   Wind: 9mph
Humidity: 54%   Direction: 280°W
Pressure: 30.04"   Gusts: NA
Location:  36.2518°N, 121.704°W
Report Text: KMRY 212054Z 28008KT 10SM CLR 19/09 A3004 RMK AO2 SLP185 T01890094 58018
Loading
Personal Weather Stations






























Interactive Weather Map New forecast layout! Learn more

10-Day Weather Forecast

Advertisements
Track Severe Weather on mobile